Weather at Guaymaral Airport

Public forecast

Using degrees Celsius for public forecast. Weather courtesy of forecast.io.

Current aviation weather report (METAR) for Guaymaral Airport

Report is more than 6 hours old.

Retrieved 2020/11/11 11:00 UTC (2 months ago):

SKGY 111100Z AUTO VRB01KT 9999NDV R29///// -RA SCT001/// SCT007/// BKN011/// 11/11 Q1028 RERA

Closest aviation forecast (TAF) to Guaymaral Airport

Closest forecast is El Dorado International Airport, 8.3 nm (15.3 km) SW. Retrieved 2021/01/16 12:00 UTC (2 hours ago):

TAF SKBO 161030Z 1612/1712 04004KT 9999 SCT023 TEMPO 1612/1613 5000 BCFG SCT013 BECMG 1614/1616 28012KT TEMPO 1622/1701 RADZ SCT015CB BECMG 1701/1703 VRB02KT TX22/1619Z TN05/1710Z